Opp, AL

9:19 PM CST on December 04, 2016 (GMT -0600)
Opp Cablevision Headend | | Change Station

Elev 327 ft 31.29 °N, 86.26 °W | Updated 19 seconds ago

Overcast
Overcast
62.0 °F
Feels Like 62.0 °F
N
0.0
Wind Variable Wind from NNE
Gusts 2.0 mph

Today
High -- | Low -- °F
--% Chance of Precip.
Yesterday
High -- | Low -- °F
Precip. -- in
Pressure 29.97 in
Visibility 10.0 miles
Clouds Mostly Cloudy 300 ft
Overcast 6000 ft
Dew Point 61 °F
Humidity 95%
Rainfall 1.15 in
Snow Depth Not available.
6:28 AM 4:42 PM
Waxing Crescent, 27% visible
METAR K79J 050256Z AUTO 32007KT 10SM BKN003 OVC060 19/17 A2998 RMK AO2 RAE52 SLP149 P0001 60004 T01940167 $
Pressure 29.97 in
Visibility 10.0 miles
Clouds Mostly Cloudy 300 ft
Overcast 6000 ft
Dew Point 61 °F
Humidity 95%
Rainfall 1.15 in
Snow Depth Not available.
6:28 AM 4:42 PM
Waxing Crescent, 27% visible
METAR K79J 050256Z AUTO 32007KT 10SM BKN003 OVC060 19/17 A2998 RMK AO2 RAE52 SLP149 P0001 60004 T01940167 $

10-Day Weather Forecast

Almanac

Astronomy

Dec. 04, 2016 Rise Set
Actual Time
Civil Twilight
Nautical Twilight
Astronomical Twilight
Moon
Length of Visible Light
Length of Day
Tomorrow will be .
, % of the Moon is Illuminated

Today's Extremes

State Highs State Lows

Community

WunderPhotos

Upload Photos

1,955,752 photos uploaded!

WunderBlog® & News

Nearby

Air Quality

  Air Quality AQ Index Pollutant
Not available.

Snow Depth

Station Depth Elevation

Earthquake Activity

City Distance Mag. Time & Date
Minimum magnitude displayed is 2.5.

Coastal Water Temperatures

Place Temperature

Stations

Nearby Weather Stations

Station Location Temp. Windchill Dew Point Humidity Wind Precip. Elev Updated Type
                   

Watches & Warnings

There are currently no watches in effect.